createdAt,value
2022-11-16T00:03:59.739Z,1.90
2022-11-16T00:09:22.351Z,1.65
2022-11-16T00:14:30.836Z,1.70
2022-11-16T00:19:33.560Z,2.75
2022-11-16T00:24:37.599Z,1.85
2022-11-16T00:29:40.234Z,1.85
2022-11-16T00:34:43.296Z,1.50
2022-11-16T00:39:47.277Z,2.08
2022-11-16T00:44:49.978Z,1.83
2022-11-16T00:49:53.220Z,1.67
2022-11-16T00:54:57.895Z,1.90
2022-11-16T01:00:00.677Z,1.67
2022-11-16T01:05:03.445Z,1.98
2022-11-16T01:10:11.629Z,1.88
2022-11-16T01:15:14.465Z,1.58
2022-11-16T01:20:19.269Z,2.05
2022-11-16T01:25:23.330Z,2.03
2022-11-16T01:30:26.077Z,2.22
2022-11-16T01:35:36.310Z,1.45
2022-11-16T01:40:41.533Z,2.00
2022-11-16T01:45:44.937Z,1.70
2022-11-16T01:50:50.588Z,2.13
2022-11-16T01:55:55.134Z,1.55
2022-11-16T02:01:01.862Z,1.63
2022-11-16T02:06:39.101Z,2.15
2022-11-16T02:12:03.994Z,1.67
2022-11-16T02:17:11.981Z,2.65
2022-11-16T02:22:25.888Z,1.33
2022-11-16T02:27:58.324Z,1.92
2022-11-16T02:33:05.572Z,2.10
2022-11-16T02:38:12.649Z,2.30
2022-11-16T02:43:21.491Z,1.98
2022-11-16T02:48:29.072Z,1.80
2022-11-16T02:53:34.175Z,1.50
2022-11-16T02:58:37.199Z,2.40
2022-11-16T03:03:44.984Z,1.95
2022-11-16T03:08:53.174Z,2.03
2022-11-16T03:13:58.448Z,1.30
2022-11-16T03:19:04.299Z,1.80
2022-11-16T03:24:07.980Z,4.00
2022-11-16T03:29:16.044Z,1.90
2022-11-16T03:34:21.932Z,1.70
2022-11-16T03:39:28.052Z,1.60
2022-11-16T03:44:31.559Z,2.90
2022-11-16T03:49:35.654Z,1.77
2022-11-16T03:54:38.670Z,1.75
2022-11-16T03:59:41.293Z,1.45
2022-11-16T04:05:02.932Z,1.95
2022-11-16T04:10:23.577Z,2.15
2022-11-16T04:15:43.940Z,2.10
2022-11-16T04:21:06.014Z,2.00
2022-11-16T04:26:09.677Z,1.67
2022-11-16T04:31:30.129Z,2.67
2022-11-16T04:37:02.746Z,1.77
2022-11-16T04:42:15.296Z,1.88
2022-11-16T04:47:19.921Z,1.88
2022-11-16T04:52:25.145Z,1.90
2022-11-16T04:57:30.625Z,3.53
2022-11-16T05:02:34.222Z,1.88
2022-11-16T05:07:38.503Z,2.05
2022-11-16T05:12:47.465Z,2.22
2022-11-16T05:17:54.830Z,1.88
2022-11-16T05:23:01.834Z,1.92
2022-11-16T05:28:13.648Z,2.33
2022-11-16T05:33:18.552Z,1.65
2022-11-16T05:38:22.626Z,2.00
2022-11-16T05:43:30.453Z,2.15
2022-11-16T05:48:53.456Z,2.03
2022-11-16T05:53:57.683Z,1.88
2022-11-16T05:59:01.779Z,1.65
2022-11-16T06:04:04.547Z,1.50
2022-11-16T06:09:11.924Z,1.95
2022-11-16T06:14:15.347Z,2.45
2022-11-16T06:19:18.143Z,1.55
2022-11-16T06:24:22.183Z,1.52
2022-11-16T06:29:25.105Z,1.80
2022-11-16T06:34:29.361Z,2.47
2022-11-16T06:39:33.764Z,2.33
2022-11-16T06:44:37.190Z,1.75
2022-11-16T06:49:41.905Z,2.50
2022-11-16T06:54:53.063Z,2.00
2022-11-16T06:59:55.871Z,1.70
2022-11-16T07:05:03.591Z,1.92
2022-11-16T07:10:09.884Z,2.55
2022-11-16T07:15:12.907Z,1.80
2022-11-16T07:20:19.351Z,2.40
2022-11-16T07:25:23.600Z,2.83
2022-11-16T07:30:26.737Z,1.77
2022-11-16T07:35:39.211Z,1.30
2022-11-16T07:40:45.608Z,1.48
2022-11-16T07:45:53.353Z,1.63
2022-11-16T07:50:56.089Z,1.75
2022-11-16T07:56:00.922Z,1.83
2022-11-16T08:01:07.510Z,1.95
2022-11-16T08:06:13.999Z,1.73
2022-11-16T08:11:19.659Z,2.15
2022-11-16T08:16:23.310Z,1.65
2022-11-16T08:21:32.247Z,2.88
2022-11-16T08:26:36.439Z,1.98
2022-11-16T08:31:45.119Z,2.22
2022-11-16T08:36:50.496Z,1.60
2022-11-16T08:41:57.389Z,1.50
2022-11-16T08:47:00.255Z,1.50
2022-11-16T08:52:26.223Z,1.63
2022-11-16T08:57:32.330Z,2.28
2022-11-16T09:02:39.618Z,1.70
2022-11-16T09:07:44.038Z,1.40
2022-11-16T09:12:48.050Z,1.98
2022-11-16T09:17:54.755Z,1.58
2022-11-16T09:22:57.433Z,3.15
2022-11-16T09:28:01.484Z,1.45
2022-11-16T09:33:04.271Z,1.50
2022-11-16T09:38:07.105Z,1.83
2022-11-16T09:43:23.134Z,1.85
2022-11-16T09:48:35.131Z,1.80
2022-11-16T09:53:41.168Z,1.55
2022-11-16T09:58:49.778Z,1.52
2022-11-16T10:03:55.545Z,1.30
2022-11-16T10:08:58.317Z,1.55
2022-11-16T10:14:12.829Z,2.03
2022-11-16T10:19:22.095Z,1.67
2022-11-16T10:24:34.483Z,2.10
2022-11-16T10:29:46.518Z,1.77
2022-11-16T10:34:52.579Z,2.22
2022-11-16T10:39:55.281Z,1.55
2022-11-16T10:45:05.505Z,3.33
2022-11-16T10:50:20.314Z,1.88
2022-11-16T10:55:24.251Z,1.80
2022-11-16T11:00:40.229Z,1.55
2022-11-16T11:05:49.846Z,1.95
2022-11-16T11:11:01.625Z,1.98
2022-11-16T11:16:19.112Z,1.50
2022-11-16T11:21:29.516Z,2.17
2022-11-16T11:26:37.164Z,1.60
2022-11-16T11:31:54.337Z,1.67
2022-11-16T11:36:59.642Z,2.17
2022-11-16T11:42:05.806Z,3.03
2022-11-16T11:53:01.813Z,1.45
2022-11-16T11:58:05.675Z,2.25
2022-11-16T12:03:27.192Z,3.10
2022-11-16T12:08:40.702Z,1.40
2022-11-16T12:14:00.658Z,1.58
2022-11-16T12:19:21.218Z,2.03
2022-11-16T12:24:34.319Z,2.15
2022-11-16T12:29:45.019Z,2.70
2022-11-16T12:34:59.500Z,2.53
2022-11-16T12:40:15.862Z,1.88
2022-11-16T12:45:32.184Z,2.25
2022-11-16T12:50:43.762Z,2.53
2022-11-16T12:55:52.503Z,2.30
2022-11-16T13:01:06.165Z,1.65
2022-11-16T13:06:13.317Z,1.30
2022-11-16T13:11:20.859Z,1.80
2022-11-16T13:16:24.103Z,1.25
2022-11-16T13:21:34.841Z,1.77
2022-11-16T13:26:43.943Z,3.95
2022-11-16T13:31:50.525Z,3.47
2022-11-16T13:36:54.657Z,1.52
2022-11-16T13:42:07.324Z,1.45
2022-11-16T13:47:21.941Z,2.05
2022-11-16T13:53:31.801Z,2.35
2022-11-16T13:58:06.316Z,1.40
2022-11-16T14:03:30.254Z,1.95
2022-11-16T14:08:48.056Z,2.42
2022-11-16T14:13:50.741Z,1.35
2022-11-16T14:18:54.365Z,2.15
2022-11-16T14:24:09.235Z,2.75
2022-11-16T14:29:23.937Z,1.92
2022-11-16T14:34:30.433Z,2.28
2022-11-16T14:39:41.126Z,3.03
2022-11-16T14:44:44.315Z,2.05
2022-11-16T14:49:48.206Z,3.25
2022-11-16T14:54:56.070Z,2.50
2022-11-16T15:00:12.807Z,1.20
2022-11-16T15:05:17.748Z,2.15
2022-11-16T15:10:24.254Z,3.47
2022-11-16T15:15:28.444Z,3.20
2022-11-16T15:20:33.850Z,2.05
2022-11-16T15:25:39.139Z,2.35
2022-11-16T15:30:42.083Z,3.53
2022-11-16T15:35:45.233Z,1.52
2022-11-16T15:40:51.556Z,1.83
2022-11-16T15:45:54.421Z,2.10
2022-11-16T15:51:08.034Z,4.25
2022-11-16T15:56:15.999Z,7.43
2022-11-16T16:01:18.846Z,7.65
2022-11-16T16:06:43.309Z,12.73
2022-11-16T16:11:47.362Z,10.50
2022-11-16T16:16:51.041Z,7.93
2022-11-16T16:21:53.966Z,7.75
2022-11-16T16:26:57.997Z,10.07
2022-11-16T16:32:00.685Z,6.53
2022-11-16T16:37:03.353Z,4.57
2022-11-16T16:42:09.785Z,6.90
2022-11-16T16:47:13.388Z,7.63
2022-11-16T16:52:16.070Z,4.30
2022-11-16T16:57:20.160Z,7.93
2022-11-16T17:02:22.856Z,7.35
2022-11-16T17:07:25.561Z,5.43
2022-11-16T17:12:29.631Z,7.55
2022-11-16T17:17:32.596Z,6.43
2022-11-16T17:22:35.652Z,3.67
2022-11-16T17:27:39.642Z,5.25
2022-11-16T17:32:42.296Z,7.32
2022-11-16T17:37:44.980Z,4.88
2022-11-16T17:42:49.059Z,5.20
2022-11-16T17:47:51.725Z,4.15
2022-11-16T17:52:54.407Z,6.03
2022-11-16T17:57:59.413Z,7.43
2022-11-16T18:03:02.377Z,4.90
2022-11-16T18:08:06.099Z,6.97
2022-11-16T18:13:10.110Z,3.53
2022-11-16T18:18:12.863Z,3.78
2022-11-16T18:23:15.484Z,4.88
2022-11-16T18:28:19.676Z,7.43
2022-11-16T18:33:25.291Z,3.38
2022-11-16T18:38:30.622Z,4.15
2022-11-16T18:43:35.389Z,3.42
2022-11-16T18:48:39.545Z,5.53
2022-11-16T18:53:42.219Z,5.38
2022-11-16T18:58:51.413Z,5.35
2022-11-16T19:03:55.846Z,4.00
2022-11-16T19:08:59.684Z,4.25
2022-11-16T19:14:04.729Z,2.97
2022-11-16T19:19:07.364Z,3.22
2022-11-16T19:24:10.162Z,4.55
2022-11-16T19:29:14.162Z,5.78
2022-11-16T19:34:16.773Z,3.83
2022-11-16T19:39:19.386Z,4.97
2022-11-16T19:44:23.438Z,7.60
2022-11-16T19:49:26.085Z,2.67
2022-11-16T19:54:28.829Z,5.75
2022-11-16T19:59:32.914Z,3.60
2022-11-16T20:04:35.950Z,4.10
2022-11-16T20:09:38.616Z,3.22
2022-11-16T20:14:42.750Z,3.95
2022-11-16T20:19:45.414Z,5.00
2022-11-16T20:24:48.061Z,2.83
2022-11-16T20:29:52.329Z,3.33
2022-11-16T20:34:54.964Z,3.30
2022-11-16T20:39:57.592Z,4.05
2022-11-16T20:45:01.605Z,6.70
2022-11-16T20:50:04.607Z,3.22
2022-11-16T20:55:08.086Z,2.65
2022-11-16T21:00:14.921Z,4.85
2022-11-16T21:05:17.682Z,2.90
2022-11-16T21:10:20.436Z,3.25
2022-11-16T21:15:24.453Z,3.30
2022-11-16T21:20:28.376Z,2.92
2022-11-16T21:25:31.414Z,3.33
2022-11-16T21:30:35.421Z,3.30
2022-11-16T21:35:38.044Z,2.95
2022-11-16T21:40:40.814Z,2.22
2022-11-16T21:45:45.597Z,4.57
2022-11-16T21:50:48.285Z,3.47
2022-11-16T21:55:51.017Z,2.70
2022-11-16T22:00:56.488Z,3.38
2022-11-16T22:06:17.682Z,5.95
2022-11-16T22:11:22.121Z,5.53
2022-11-16T22:16:45.674Z,6.15
2022-11-16T22:21:48.400Z,6.70
2022-11-16T22:26:51.155Z,5.30
2022-11-16T22:31:55.197Z,5.20
2022-11-16T22:36:57.912Z,4.70
2022-11-16T22:42:00.616Z,8.60
2022-11-16T22:47:04.708Z,8.00
2022-11-16T22:52:07.415Z,6.15
2022-11-16T22:57:10.121Z,4.57
2022-11-16T23:02:14.154Z,5.05
2022-11-16T23:07:16.923Z,6.45
2022-11-16T23:12:48.867Z,6.82
2022-11-16T23:17:52.884Z,5.57
2022-11-16T23:23:13.262Z,5.47
2022-11-16T23:28:17.195Z,3.75
2022-11-16T23:33:42.098Z,4.55
2022-11-16T23:38:44.776Z,7.00
2022-11-16T23:44:01.387Z,5.80
2022-11-16T23:49:05.405Z,5.32
2022-11-16T23:54:08.279Z,4.63
2022-11-16T23:59:10.946Z,3.20
